sensor_id;sensor_type;location;lat;lon;timestamp;P1;durP1;ratioP1;P2;durP2;ratioP2
7199;SDS011;3641;49.082;8.200;2022-11-25T00:01:02;12.00;;;3.88;;
7199;SDS011;3641;49.082;8.200;2022-11-25T00:03:31;11.25;;;4.15;;
7199;SDS011;3641;49.082;8.200;2022-11-25T00:06:06;16.20;;;4.88;;
7199;SDS011;3641;49.082;8.200;2022-11-25T00:08:33;19.23;;;7.38;;
7199;SDS011;3641;49.082;8.200;2022-11-25T00:10:59;14.18;;;6.70;;
7199;SDS011;3641;49.082;8.200;2022-11-25T00:13:26;18.10;;;7.85;;
7199;SDS011;3641;49.082;8.200;2022-11-25T00:15:52;16.13;;;6.35;;
7199;SDS011;3641;49.082;8.200;2022-11-25T00:18:19;13.40;;;5.75;;
7199;SDS011;3641;49.082;8.200;2022-11-25T00:20:47;16.65;;;6.38;;
7199;SDS011;3641;49.082;8.200;2022-11-25T00:23:13;11.00;;;4.50;;
7199;SDS011;3641;49.082;8.200;2022-11-25T00:25:40;10.07;;;4.00;;
7199;SDS011;3641;49.082;8.200;2022-11-25T00:28:06;11.30;;;4.07;;
7199;SDS011;3641;49.082;8.200;2022-11-25T00:30:33;9.63;;;4.28;;
7199;SDS011;3641;49.082;8.200;2022-11-25T00:32:59;10.02;;;3.55;;
7199;SDS011;3641;49.082;8.200;2022-11-25T00:35:26;8.35;;;3.63;;
7199;SDS011;3641;49.082;8.200;2022-11-25T00:37:54;11.05;;;3.42;;
7199;SDS011;3641;49.082;8.200;2022-11-25T00:40:20;11.68;;;4.03;;
7199;SDS011;3641;49.082;8.200;2022-11-25T00:42:47;13.63;;;4.13;;
7199;SDS011;3641;49.082;8.200;2022-11-25T00:45:31;12.80;;;4.22;;
7199;SDS011;3641;49.082;8.200;2022-11-25T00:47:57;13.23;;;3.47;;
7199;SDS011;3641;49.082;8.200;2022-11-25T00:50:24;11.35;;;3.70;;
7199;SDS011;3641;49.082;8.200;2022-11-25T00:52:50;11.00;;;3.53;;
7199;SDS011;3641;49.082;8.200;2022-11-25T00:55:18;13.93;;;3.63;;
7199;SDS011;3641;49.082;8.200;2022-11-25T00:57:45;13.77;;;3.75;;
7199;SDS011;3641;49.082;8.200;2022-11-25T01:00:12;11.10;;;3.88;;
7199;SDS011;3641;49.082;8.200;2022-11-25T01:02:39;8.40;;;3.90;;
7199;SDS011;3641;49.082;8.200;2022-11-25T01:05:06;13.52;;;4.30;;
7199;SDS011;3641;49.082;8.200;2022-11-25T01:07:33;12.35;;;4.18;;
7199;SDS011;3641;49.082;8.200;2022-11-25T01:09:59;7.35;;;3.10;;
7199;SDS011;3641;49.082;8.200;2022-11-25T01:12:27;10.23;;;3.42;;
7199;SDS011;3641;49.082;8.200;2022-11-25T01:14:54;10.85;;;4.00;;
7199;SDS011;3641;49.082;8.200;2022-11-25T01:17:20;5.80;;;3.08;;
7199;SDS011;3641;49.082;8.200;2022-11-25T01:19:46;8.93;;;3.30;;
7199;SDS011;3641;49.082;8.200;2022-11-25T01:22:13;7.10;;;2.95;;
7199;SDS011;3641;49.082;8.200;2022-11-25T01:24:39;9.45;;;3.72;;
7199;SDS011;3641;49.082;8.200;2022-11-25T01:27:06;10.15;;;3.95;;
7199;SDS011;3641;49.082;8.200;2022-11-25T01:29:34;10.27;;;3.78;;
7199;SDS011;3641;49.082;8.200;2022-11-25T01:32:00;9.48;;;4.13;;
7199;SDS011;3641;49.082;8.200;2022-11-25T01:34:27;9.85;;;4.55;;
7199;SDS011;3641;49.082;8.200;2022-11-25T01:36:56;9.55;;;4.18;;
7199;SDS011;3641;49.082;8.200;2022-11-25T01:39:23;11.73;;;4.38;;
7199;SDS011;3641;49.082;8.200;2022-11-25T01:41:50;11.00;;;5.88;;
7199;SDS011;3641;49.082;8.200;2022-11-25T01:44:17;12.48;;;5.75;;
7199;SDS011;3641;49.082;8.200;2022-11-25T01:46:48;12.35;;;6.00;;
7199;SDS011;3641;49.082;8.200;2022-11-25T01:49:25;13.30;;;6.28;;
7199;SDS011;3641;49.082;8.200;2022-11-25T01:51:56;15.10;;;5.40;;
7199;SDS011;3641;49.082;8.200;2022-11-25T01:54:27;15.63;;;7.00;;
7199;SDS011;3641;49.082;8.200;2022-11-25T01:56:58;12.20;;;5.47;;
7199;SDS011;3641;49.082;8.200;2022-11-25T01:59:26;12.88;;;5.07;;
7199;SDS011;3641;49.082;8.200;2022-11-25T02:01:58;13.95;;;5.18;;
7199;SDS011;3641;49.082;8.200;2022-11-25T02:04:27;10.23;;;4.68;;
7199;SDS011;3641;49.082;8.200;2022-11-25T02:07:00;8.77;;;4.30;;
7199;SDS011;3641;49.082;8.200;2022-11-25T02:09:31;12.93;;;4.60;;
7199;SDS011;3641;49.082;8.200;2022-11-25T02:11:59;11.32;;;4.53;;
7199;SDS011;3641;49.082;8.200;2022-11-25T02:14:27;12.75;;;4.60;;
7199;SDS011;3641;49.082;8.200;2022-11-25T02:16:53;11.45;;;4.95;;
7199;SDS011;3641;49.082;8.200;2022-11-25T02:19:23;10.48;;;4.78;;
7199;SDS011;3641;49.082;8.200;2022-11-25T02:21:59;9.75;;;4.75;;
7199;SDS011;3641;49.082;8.200;2022-11-25T02:24:33;11.40;;;5.13;;
7199;SDS011;3641;49.082;8.200;2022-11-25T02:27:09;9.98;;;4.82;;
7199;SDS011;3641;49.082;8.200;2022-11-25T02:29:35;10.07;;;4.07;;
7199;SDS011;3641;49.082;8.200;2022-11-25T02:32:03;11.85;;;4.80;;
7199;SDS011;3641;49.082;8.200;2022-11-25T02:34:30;10.00;;;4.18;;
7199;SDS011;3641;49.082;8.200;2022-11-25T02:36:57;12.95;;;4.60;;
7199;SDS011;3641;49.082;8.200;2022-11-25T02:39:24;14.02;;;6.50;;
7199;SDS011;3641;49.082;8.200;2022-11-25T02:41:51;18.83;;;7.93;;
7199;SDS011;3641;49.082;8.200;2022-11-25T02:44:23;18.02;;;9.00;;
7199;SDS011;3641;49.082;8.200;2022-11-25T02:46:49;13.80;;;6.40;;
7199;SDS011;3641;49.082;8.200;2022-11-25T02:49:16;11.50;;;5.03;;
7199;SDS011;3641;49.082;8.200;2022-11-25T02:51:43;14.63;;;5.43;;
7199;SDS011;3641;49.082;8.200;2022-11-25T02:54:10;11.70;;;5.80;;
7199;SDS011;3641;49.082;8.200;2022-11-25T02:56:38;12.02;;;5.00;;
7199;SDS011;3641;49.082;8.200;2022-11-25T02:59:05;10.00;;;4.63;;
7199;SDS011;3641;49.082;8.200;2022-11-25T03:01:34;14.27;;;5.68;;
7199;SDS011;3641;49.082;8.200;2022-11-25T03:04:00;10.75;;;4.85;;
7199;SDS011;3641;49.082;8.200;2022-11-25T03:06:27;12.75;;;4.90;;
7199;SDS011;3641;49.082;8.200;2022-11-25T03:08:54;13.32;;;5.15;;
7199;SDS011;3641;49.082;8.200;2022-11-25T03:11:21;12.75;;;5.45;;
7199;SDS011;3641;49.082;8.200;2022-11-25T03:14:09;14.45;;;5.15;;
7199;SDS011;3641;49.082;8.200;2022-11-25T03:16:37;14.88;;;5.70;;
7199;SDS011;3641;49.082;8.200;2022-11-25T03:19:04;11.30;;;5.03;;
7199;SDS011;3641;49.082;8.200;2022-11-25T03:21:30;10.95;;;4.95;;
7199;SDS011;3641;49.082;8.200;2022-11-25T03:23:57;11.52;;;5.55;;
7199;SDS011;3641;49.082;8.200;2022-11-25T03:26:23;10.40;;;5.05;;
7199;SDS011;3641;49.082;8.200;2022-11-25T03:28:51;13.38;;;5.15;;
7199;SDS011;3641;49.082;8.200;2022-11-25T03:31:17;10.98;;;5.20;;
7199;SDS011;3641;49.082;8.200;2022-11-25T03:33:45;11.27;;;5.28;;
7199;SDS011;3641;49.082;8.200;2022-11-25T03:36:12;15.57;;;5.78;;
7199;SDS011;3641;49.082;8.200;2022-11-25T03:38:38;20.45;;;5.55;;
7199;SDS011;3641;49.082;8.200;2022-11-25T03:41:05;10.57;;;4.90;;
7199;SDS011;3641;49.082;8.200;2022-11-25T03:43:31;11.30;;;4.90;;
7199;SDS011;3641;49.082;8.200;2022-11-25T03:45:59;11.48;;;4.53;;
7199;SDS011;3641;49.082;8.200;2022-11-25T03:48:26;14.10;;;4.88;;
7199;SDS011;3641;49.082;8.200;2022-11-25T03:50:53;9.80;;;4.35;;
7199;SDS011;3641;49.082;8.200;2022-11-25T03:53:20;12.05;;;4.65;;
7199;SDS011;3641;49.082;8.200;2022-11-25T03:55:47;10.55;;;4.53;;
7199;SDS011;3641;49.082;8.200;2022-11-25T03:58:13;11.18;;;4.90;;
7199;SDS011;3641;49.082;8.200;2022-11-25T04:00:40;12.25;;;5.32;;
7199;SDS011;3641;49.082;8.200;2022-11-25T04:03:06;11.20;;;5.72;;
7199;SDS011;3641;49.082;8.200;2022-11-25T04:05:33;11.60;;;5.20;;
7199;SDS011;3641;49.082;8.200;2022-11-25T04:08:01;13.98;;;5.35;;
7199;SDS011;3641;49.082;8.200;2022-11-25T04:10:27;12.07;;;4.95;;
7199;SDS011;3641;49.082;8.200;2022-11-25T04:12:54;10.75;;;5.30;;
7199;SDS011;3641;49.082;8.200;2022-11-25T04:15:19;11.88;;;5.18;;
7199;SDS011;3641;49.082;8.200;2022-11-25T04:17:46;12.13;;;5.40;;
7199;SDS011;3641;49.082;8.200;2022-11-25T04:20:13;11.82;;;5.63;;
7199;SDS011;3641;49.082;8.200;2022-11-25T04:22:40;12.90;;;5.68;;
7199;SDS011;3641;49.082;8.200;2022-11-25T04:25:08;14.05;;;6.35;;
7199;SDS011;3641;49.082;8.200;2022-11-25T04:27:35;18.55;;;7.57;;
7199;SDS011;3641;49.082;8.200;2022-11-25T04:30:02;13.18;;;7.15;;
7199;SDS011;3641;49.082;8.200;2022-11-25T04:32:29;15.30;;;8.60;;
7199;SDS011;3641;49.082;8.200;2022-11-25T04:34:56;14.15;;;7.55;;
7199;SDS011;3641;49.082;8.200;2022-11-25T04:37:22;13.30;;;6.93;;
7199;SDS011;3641;49.082;8.200;2022-11-25T04:39:49;12.57;;;6.68;;
7199;SDS011;3641;49.082;8.200;2022-11-25T04:42:17;14.85;;;6.15;;
7199;SDS011;3641;49.082;8.200;2022-11-25T04:45:08;13.18;;;6.20;;
7199;SDS011;3641;49.082;8.200;2022-11-25T04:47:37;13.80;;;6.13;;
7199;SDS011;3641;49.082;8.200;2022-11-25T04:50:04;11.10;;;6.38;;
7199;SDS011;3641;49.082;8.200;2022-11-25T04:52:32;10.77;;;6.20;;
7199;SDS011;3641;49.082;8.200;2022-11-25T04:54:59;13.05;;;7.13;;
7199;SDS011;3641;49.082;8.200;2022-11-25T04:57:27;19.27;;;7.18;;
7199;SDS011;3641;49.082;8.200;2022-11-25T04:59:53;16.70;;;6.68;;
7199;SDS011;3641;49.082;8.200;2022-11-25T05:02:20;15.75;;;6.93;;
7199;SDS011;3641;49.082;8.200;2022-11-25T05:04:48;14.30;;;6.90;;
7199;SDS011;3641;49.082;8.200;2022-11-25T05:07:18;15.05;;;6.47;;
7199;SDS011;3641;49.082;8.200;2022-11-25T05:09:46;12.85;;;6.38;;
7199;SDS011;3641;49.082;8.200;2022-11-25T05:12:14;15.43;;;7.00;;
7199;SDS011;3641;49.082;8.200;2022-11-25T05:14:43;15.77;;;6.50;;
7199;SDS011;3641;49.082;8.200;2022-11-25T05:17:11;12.63;;;6.57;;
7199;SDS011;3641;49.082;8.200;2022-11-25T05:19:39;13.88;;;7.15;;
7199;SDS011;3641;49.082;8.200;2022-11-25T05:22:10;19.60;;;7.85;;
7199;SDS011;3641;49.082;8.200;2022-11-25T05:24:37;19.90;;;8.45;;
7199;SDS011;3641;49.082;8.200;2022-11-25T05:27:03;15.15;;;7.53;;
7199;SDS011;3641;49.082;8.200;2022-11-25T05:29:30;17.25;;;7.95;;
7199;SDS011;3641;49.082;8.200;2022-11-25T05:31:58;18.02;;;8.38;;
7199;SDS011;3641;49.082;8.200;2022-11-25T05:34:24;17.88;;;8.70;;
7199;SDS011;3641;49.082;8.200;2022-11-25T05:36:51;20.00;;;10.02;;
7199;SDS011;3641;49.082;8.200;2022-11-25T05:39:18;24.70;;;9.98;;
7199;SDS011;3641;49.082;8.200;2022-11-25T05:41:44;18.13;;;9.65;;
7199;SDS011;3641;49.082;8.200;2022-11-25T05:44:11;20.48;;;10.48;;
7199;SDS011;3641;49.082;8.200;2022-11-25T05:46:38;21.60;;;10.52;;
7199;SDS011;3641;49.082;8.200;2022-11-25T05:49:06;20.70;;;11.15;;
7199;SDS011;3641;49.082;8.200;2022-11-25T05:51:32;20.50;;;10.85;;
7199;SDS011;3641;49.082;8.200;2022-11-25T05:53:59;23.67;;;11.35;;
7199;SDS011;3641;49.082;8.200;2022-11-25T05:56:25;22.13;;;11.77;;
7199;SDS011;3641;49.082;8.200;2022-11-25T05:58:52;22.98;;;11.27;;
7199;SDS011;3641;49.082;8.200;2022-11-25T06:01:19;22.25;;;11.02;;
7199;SDS011;3641;49.082;8.200;2022-11-25T06:03:47;21.73;;;10.63;;
7199;SDS011;3641;49.082;8.200;2022-11-25T06:06:15;17.48;;;9.45;;
7199;SDS011;3641;49.082;8.200;2022-11-25T06:08:42;21.17;;;9.57;;
7199;SDS011;3641;49.082;8.200;2022-11-25T06:11:10;19.65;;;8.73;;
7199;SDS011;3641;49.082;8.200;2022-11-25T06:13:38;18.75;;;8.50;;
7199;SDS011;3641;49.082;8.200;2022-11-25T06:16:05;19.95;;;8.85;;
7199;SDS011;3641;49.082;8.200;2022-11-25T06:18:34;15.77;;;8.30;;
7199;SDS011;3641;49.082;8.200;2022-11-25T06:21:01;16.58;;;7.57;;
7199;SDS011;3641;49.082;8.200;2022-11-25T06:23:29;15.40;;;6.65;;
7199;SDS011;3641;49.082;8.200;2022-11-25T06:26:01;14.18;;;6.13;;
7199;SDS011;3641;49.082;8.200;2022-11-25T06:28:28;17.65;;;7.25;;
7199;SDS011;3641;49.082;8.200;2022-11-25T06:30:55;13.38;;;7.30;;
7199;SDS011;3641;49.082;8.200;2022-11-25T06:33:21;13.02;;;7.15;;
7199;SDS011;3641;49.082;8.200;2022-11-25T06:35:48;14.88;;;6.85;;
7199;SDS011;3641;49.082;8.200;2022-11-25T06:38:14;17.15;;;7.05;;
7199;SDS011;3641;49.082;8.200;2022-11-25T06:40:42;17.27;;;6.75;;
7199;SDS011;3641;49.082;8.200;2022-11-25T06:43:09;15.52;;;8.60;;
7199;SDS011;3641;49.082;8.200;2022-11-25T06:45:35;17.52;;;8.25;;
7199;SDS011;3641;49.082;8.200;2022-11-25T06:48:02;22.02;;;8.80;;
7199;SDS011;3641;49.082;8.200;2022-11-25T06:50:29;16.00;;;8.30;;
7199;SDS011;3641;49.082;8.200;2022-11-25T06:52:55;16.45;;;8.07;;
7199;SDS011;3641;49.082;8.200;2022-11-25T06:55:22;15.50;;;7.18;;
7199;SDS011;3641;49.082;8.200;2022-11-25T06:57:50;17.83;;;8.95;;
7199;SDS011;3641;49.082;8.200;2022-11-25T07:00:16;13.20;;;7.82;;
7199;SDS011;3641;49.082;8.200;2022-11-25T07:02:44;18.30;;;8.48;;
7199;SDS011;3641;49.082;8.200;2022-11-25T07:05:11;15.25;;;9.15;;
7199;SDS011;3641;49.082;8.200;2022-11-25T07:07:37;17.48;;;8.20;;
7199;SDS011;3641;49.082;8.200;2022-11-25T07:10:04;18.88;;;8.70;;
7199;SDS011;3641;49.082;8.200;2022-11-25T07:12:32;16.13;;;8.27;;
7199;SDS011;3641;49.082;8.200;2022-11-25T07:14:59;17.88;;;8.13;;
7199;SDS011;3641;49.082;8.200;2022-11-25T07:17:26;14.07;;;7.40;;
7199;SDS011;3641;49.082;8.200;2022-11-25T07:19:52;17.15;;;8.00;;
7199;SDS011;3641;49.082;8.200;2022-11-25T07:22:19;13.25;;;7.13;;
7199;SDS011;3641;49.082;8.200;2022-11-25T07:24:46;13.77;;;7.85;;
7199;SDS011;3641;49.082;8.200;2022-11-25T07:27:13;13.77;;;7.60;;
7199;SDS011;3641;49.082;8.200;2022-11-25T07:29:39;14.27;;;7.30;;
7199;SDS011;3641;49.082;8.200;2022-11-25T07:32:07;14.15;;;7.55;;
7199;SDS011;3641;49.082;8.200;2022-11-25T07:34:34;14.10;;;7.97;;
7199;SDS011;3641;49.082;8.200;2022-11-25T07:37:00;21.45;;;8.48;;
7199;SDS011;3641;49.082;8.200;2022-11-25T07:39:27;23.50;;;7.80;;
7199;SDS011;3641;49.082;8.200;2022-11-25T07:41:54;16.73;;;8.38;;
7199;SDS011;3641;49.082;8.200;2022-11-25T07:44:20;14.38;;;9.30;;
7199;SDS011;3641;49.082;8.200;2022-11-25T07:46:47;23.10;;;10.43;;
7199;SDS011;3641;49.082;8.200;2022-11-25T07:49:17;19.48;;;10.45;;
7199;SDS011;3641;49.082;8.200;2022-11-25T07:51:47;18.67;;;11.05;;
7199;SDS011;3641;49.082;8.200;2022-11-25T07:54:14;20.23;;;11.10;;
7199;SDS011;3641;49.082;8.200;2022-11-25T07:56:41;19.85;;;10.63;;
7199;SDS011;3641;49.082;8.200;2022-11-25T07:59:09;17.10;;;9.55;;
7199;SDS011;3641;49.082;8.200;2022-11-25T08:01:38;19.55;;;10.23;;
7199;SDS011;3641;49.082;8.200;2022-11-25T08:04:05;15.20;;;9.45;;
7199;SDS011;3641;49.082;8.200;2022-11-25T08:06:36;16.27;;;9.32;;
7199;SDS011;3641;49.082;8.200;2022-11-25T08:09:03;17.80;;;7.97;;
7199;SDS011;3641;49.082;8.200;2022-11-25T08:11:30;17.65;;;7.80;;
7199;SDS011;3641;49.082;8.200;2022-11-25T08:13:57;18.88;;;8.05;;
7199;SDS011;3641;49.082;8.200;2022-11-25T08:16:25;16.23;;;8.80;;
7199;SDS011;3641;49.082;8.200;2022-11-25T08:18:53;15.30;;;8.88;;
7199;SDS011;3641;49.082;8.200;2022-11-25T08:21:20;16.85;;;8.27;;
7199;SDS011;3641;49.082;8.200;2022-11-25T08:23:48;16.63;;;8.38;;
7199;SDS011;3641;49.082;8.200;2022-11-25T08:26:17;17.20;;;7.30;;
7199;SDS011;3641;49.082;8.200;2022-11-25T08:28:45;15.73;;;7.13;;
7199;SDS011;3641;49.082;8.200;2022-11-25T08:31:12;16.10;;;7.07;;
7199;SDS011;3641;49.082;8.200;2022-11-25T08:33:40;15.35;;;7.28;;
7199;SDS011;3641;49.082;8.200;2022-11-25T08:36:08;15.10;;;7.18;;
7199;SDS011;3641;49.082;8.200;2022-11-25T08:38:35;13.60;;;6.18;;
7199;SDS011;3641;49.082;8.200;2022-11-25T08:41:07;13.40;;;6.93;;
7199;SDS011;3641;49.082;8.200;2022-11-25T08:43:34;12.38;;;6.90;;
7199;SDS011;3641;49.082;8.200;2022-11-25T08:46:05;13.45;;;7.15;;
7199;SDS011;3641;49.082;8.200;2022-11-25T08:48:33;12.75;;;6.38;;
7199;SDS011;3641;49.082;8.200;2022-11-25T08:51:00;13.23;;;6.88;;
7199;SDS011;3641;49.082;8.200;2022-11-25T08:53:26;14.02;;;7.40;;
7199;SDS011;3641;49.082;8.200;2022-11-25T08:55:53;14.15;;;7.68;;
7199;SDS011;3641;49.082;8.200;2022-11-25T08:58:20;14.77;;;7.45;;
7199;SDS011;3641;49.082;8.200;2022-11-25T09:00:47;12.50;;;7.50;;
7199;SDS011;3641;49.082;8.200;2022-11-25T09:03:14;15.07;;;7.57;;
7199;SDS011;3641;49.082;8.200;2022-11-25T09:05:40;14.98;;;7.18;;
7199;SDS011;3641;49.082;8.200;2022-11-25T09:08:08;16.05;;;7.00;;
7199;SDS011;3641;49.082;8.200;2022-11-25T09:10:36;15.68;;;8.00;;
7199;SDS011;3641;49.082;8.200;2022-11-25T09:13:03;14.68;;;7.35;;
7199;SDS011;3641;49.082;8.200;2022-11-25T09:15:31;18.40;;;8.40;;
7199;SDS011;3641;49.082;8.200;2022-11-25T09:17:59;19.30;;;7.20;;
7199;SDS011;3641;49.082;8.200;2022-11-25T09:20:27;14.00;;;7.13;;
7199;SDS011;3641;49.082;8.200;2022-11-25T09:22:54;16.23;;;8.23;;
7199;SDS011;3641;49.082;8.200;2022-11-25T09:25:21;17.27;;;7.85;;
7199;SDS011;3641;49.082;8.200;2022-11-25T09:27:48;16.02;;;8.02;;
7199;SDS011;3641;49.082;8.200;2022-11-25T09:30:14;15.95;;;7.95;;
7199;SDS011;3641;49.082;8.200;2022-11-25T09:32:42;22.38;;;8.38;;
7199;SDS011;3641;49.082;8.200;2022-11-25T09:35:09;17.20;;;9.75;;
7199;SDS011;3641;49.082;8.200;2022-11-25T09:37:36;18.15;;;10.07;;
7199;SDS011;3641;49.082;8.200;2022-11-25T09:40:03;20.48;;;9.15;;
7199;SDS011;3641;49.082;8.200;2022-11-25T09:42:33;17.27;;;10.00;;
7199;SDS011;3641;49.082;8.200;2022-11-25T09:45:30;23.38;;;11.10;;
7199;SDS011;3641;49.082;8.200;2022-11-25T09:48:24;14.90;;;8.18;;
7199;SDS011;3641;49.082;8.200;2022-11-25T09:51:02;22.50;;;9.90;;
7199;SDS011;3641;49.082;8.200;2022-11-25T09:53:45;18.25;;;9.30;;
7199;SDS011;3641;49.082;8.200;2022-11-25T09:56:18;21.30;;;10.18;;
7199;SDS011;3641;49.082;8.200;2022-11-25T09:58:52;20.63;;;10.68;;
7199;SDS011;3641;49.082;8.200;2022-11-25T10:01:22;22.23;;;10.00;;
7199;SDS011;3641;49.082;8.200;2022-11-25T10:03:54;17.20;;;9.50;;
7199;SDS011;3641;49.082;8.200;2022-11-25T10:06:24;18.63;;;9.93;;
7199;SDS011;3641;49.082;8.200;2022-11-25T10:08:54;17.85;;;9.27;;
7199;SDS011;3641;49.082;8.200;2022-11-25T10:11:29;18.77;;;9.75;;
7199;SDS011;3641;49.082;8.200;2022-11-25T10:14:05;22.92;;;10.07;;
7199;SDS011;3641;49.082;8.200;2022-11-25T10:16:38;22.88;;;9.90;;
7199;SDS011;3641;49.082;8.200;2022-11-25T10:19:17;19.10;;;10.00;;
7199;SDS011;3641;49.082;8.200;2022-11-25T10:21:51;21.17;;;9.55;;
7199;SDS011;3641;49.082;8.200;2022-11-25T10:24:18;18.77;;;9.25;;
7199;SDS011;3641;49.082;8.200;2022-11-25T10:26:47;21.10;;;9.75;;
7199;SDS011;3641;49.082;8.200;2022-11-25T10:29:21;20.75;;;9.10;;
7199;SDS011;3641;49.082;8.200;2022-11-25T10:31:50;19.17;;;9.27;;
7199;SDS011;3641;49.082;8.200;2022-11-25T10:34:28;19.88;;;9.15;;
7199;SDS011;3641;49.082;8.200;2022-11-25T10:37:00;17.13;;;8.70;;
7199;SDS011;3641;49.082;8.200;2022-11-25T10:39:30;19.67;;;9.02;;
7199;SDS011;3641;49.082;8.200;2022-11-25T10:42:00;17.80;;;8.60;;
7199;SDS011;3641;49.082;8.200;2022-11-25T10:44:29;18.58;;;9.70;;
7199;SDS011;3641;49.082;8.200;2022-11-25T10:47:02;19.63;;;8.63;;
7199;SDS011;3641;49.082;8.200;2022-11-25T10:49:44;20.70;;;8.45;;
7199;SDS011;3641;49.082;8.200;2022-11-25T10:52:25;17.08;;;9.10;;
7199;SDS011;3641;49.082;8.200;2022-11-25T10:54:57;19.02;;;9.38;;
7199;SDS011;3641;49.082;8.200;2022-11-25T10:57:34;18.25;;;8.90;;
7199;SDS011;3641;49.082;8.200;2022-11-25T11:00:02;23.73;;;9.05;;
7199;SDS011;3641;49.082;8.200;2022-11-25T11:02:35;21.17;;;9.35;;
7199;SDS011;3641;49.082;8.200;2022-11-25T11:05:14;18.20;;;9.63;;
7199;SDS011;3641;49.082;8.200;2022-11-25T11:07:44;19.02;;;9.18;;
7199;SDS011;3641;49.082;8.200;2022-11-25T11:10:23;16.88;;;8.52;;
7199;SDS011;3641;49.082;8.200;2022-11-25T11:12:56;15.10;;;8.38;;
7199;SDS011;3641;49.082;8.200;2022-11-25T11:15:25;17.98;;;8.05;;
7199;SDS011;3641;49.082;8.200;2022-11-25T11:17:53;17.05;;;7.63;;
7199;SDS011;3641;49.082;8.200;2022-11-25T11:20:23;19.95;;;8.65;;
7199;SDS011;3641;49.082;8.200;2022-11-25T11:22:54;16.48;;;7.75;;
7199;SDS011;3641;49.082;8.200;2022-11-25T11:25:30;18.25;;;7.47;;
7199;SDS011;3641;49.082;8.200;2022-11-25T11:27:58;13.07;;;7.15;;
7199;SDS011;3641;49.082;8.200;2022-11-25T11:30:26;21.33;;;7.35;;
7199;SDS011;3641;49.082;8.200;2022-11-25T11:32:55;18.08;;;7.95;;
7199;SDS011;3641;49.082;8.200;2022-11-25T11:35:26;19.67;;;7.43;;
7199;SDS011;3641;49.082;8.200;2022-11-25T11:38:00;16.90;;;7.35;;
7199;SDS011;3641;49.082;8.200;2022-11-25T11:40:34;18.70;;;6.68;;
7199;SDS011;3641;49.082;8.200;2022-11-25T11:43:08;15.52;;;6.35;;
7199;SDS011;3641;49.082;8.200;2022-11-25T11:45:56;14.40;;;7.68;;
7199;SDS011;3641;49.082;8.200;2022-11-25T11:48:37;15.15;;;7.50;;
7199;SDS011;3641;49.082;8.200;2022-11-25T11:51:10;16.63;;;7.70;;
7199;SDS011;3641;49.082;8.200;2022-11-25T11:53:47;17.35;;;8.00;;
7199;SDS011;3641;49.082;8.200;2022-11-25T11:56:27;17.45;;;7.78;;
7199;SDS011;3641;49.082;8.200;2022-11-25T11:59:08;17.45;;;6.93;;
7199;SDS011;3641;49.082;8.200;2022-11-25T12:01:47;16.42;;;7.65;;
7199;SDS011;3641;49.082;8.200;2022-11-25T12:04:28;14.57;;;7.05;;
7199;SDS011;3641;49.082;8.200;2022-11-25T12:07:04;17.25;;;7.68;;
7199;SDS011;3641;49.082;8.200;2022-11-25T12:09:37;16.60;;;6.80;;
7199;SDS011;3641;49.082;8.200;2022-11-25T12:12:12;15.20;;;7.30;;
7199;SDS011;3641;49.082;8.200;2022-11-25T12:14:44;18.27;;;7.22;;
7199;SDS011;3641;49.082;8.200;2022-11-25T12:17:16;16.60;;;6.93;;
7199;SDS011;3641;49.082;8.200;2022-11-25T12:19:48;14.93;;;6.47;;
7199;SDS011;3641;49.082;8.200;2022-11-25T12:22:22;17.05;;;7.38;;
7199;SDS011;3641;49.082;8.200;2022-11-25T12:24:55;16.48;;;7.25;;
7199;SDS011;3641;49.082;8.200;2022-11-25T12:27:30;16.33;;;7.20;;
7199;SDS011;3641;49.082;8.200;2022-11-25T12:30:00;17.27;;;6.93;;
7199;SDS011;3641;49.082;8.200;2022-11-25T12:32:45;18.35;;;7.35;;
7199;SDS011;3641;49.082;8.200;2022-11-25T12:35:24;16.63;;;6.80;;
7199;SDS011;3641;49.082;8.200;2022-11-25T12:38:03;17.25;;;7.03;;
7199;SDS011;3641;49.082;8.200;2022-11-25T12:40:36;14.48;;;6.45;;
7199;SDS011;3641;49.082;8.200;2022-11-25T12:45:59;13.23;;;6.05;;
7199;SDS011;3641;49.082;8.200;2022-11-25T12:48:32;14.35;;;6.05;;
7199;SDS011;3641;49.082;8.200;2022-11-25T12:51:05;16.30;;;5.82;;
7199;SDS011;3641;49.082;8.200;2022-11-25T12:53:43;17.58;;;5.88;;
7199;SDS011;3641;49.082;8.200;2022-11-25T12:56:20;14.45;;;5.97;;
7199;SDS011;3641;49.082;8.200;2022-11-25T12:58:52;16.50;;;5.78;;
7199;SDS011;3641;49.082;8.200;2022-11-25T13:04:28;15.60;;;5.60;;
7199;SDS011;3641;49.082;8.200;2022-11-25T13:07:16;15.57;;;6.18;;
7199;SDS011;3641;49.082;8.200;2022-11-25T13:10:04;15.25;;;6.68;;
7199;SDS011;3641;49.082;8.200;2022-11-25T13:12:41;19.05;;;6.18;;
7199;SDS011;3641;49.082;8.200;2022-11-25T13:15:20;12.07;;;6.07;;
7199;SDS011;3641;49.082;8.200;2022-11-25T13:17:53;21.20;;;7.22;;
7199;SDS011;3641;49.082;8.200;2022-11-25T13:20:32;14.63;;;5.90;;
7199;SDS011;3641;49.082;8.200;2022-11-25T13:23:19;15.20;;;5.55;;
7199;SDS011;3641;49.082;8.200;2022-11-25T13:25:50;15.23;;;5.57;;
7199;SDS011;3641;49.082;8.200;2022-11-25T13:28:27;12.88;;;5.38;;
7199;SDS011;3641;49.082;8.200;2022-11-25T13:30:55;12.75;;;5.63;;
7199;SDS011;3641;49.082;8.200;2022-11-25T13:36:50;13.98;;;5.38;;
7199;SDS011;3641;49.082;8.200;2022-11-25T13:39:27;13.95;;;5.30;;
7199;SDS011;3641;49.082;8.200;2022-11-25T13:42:01;15.25;;;6.00;;
7199;SDS011;3641;49.082;8.200;2022-11-25T13:44:30;15.65;;;5.43;;
7199;SDS011;3641;49.082;8.200;2022-11-25T13:47:00;13.40;;;5.13;;
7199;SDS011;3641;49.082;8.200;2022-11-25T13:49:54;17.48;;;6.03;;
7199;SDS011;3641;49.082;8.200;2022-11-25T13:52:31;14.52;;;5.53;;
7199;SDS011;3641;49.082;8.200;2022-11-25T13:55:02;11.00;;;5.50;;
7199;SDS011;3641;49.082;8.200;2022-11-25T13:57:35;17.48;;;5.07;;
7199;SDS011;3641;49.082;8.200;2022-11-25T14:00:06;12.55;;;5.22;;
7199;SDS011;3641;49.082;8.200;2022-11-25T14:06:08;16.00;;;5.55;;
7199;SDS011;3641;49.082;8.200;2022-11-25T14:08:44;14.90;;;5.53;;
7199;SDS011;3641;49.082;8.200;2022-11-25T14:11:29;15.55;;;5.32;;
7199;SDS011;3641;49.082;8.200;2022-11-25T14:14:07;17.45;;;5.35;;
7199;SDS011;3641;49.082;8.200;2022-11-25T14:16:48;11.75;;;5.32;;
7199;SDS011;3641;49.082;8.200;2022-11-25T14:22:39;17.50;;;5.70;;
7199;SDS011;3641;49.082;8.200;2022-11-25T14:25:26;14.23;;;5.65;;
7199;SDS011;3641;49.082;8.200;2022-11-25T14:27:55;15.73;;;5.82;;
7199;SDS011;3641;49.082;8.200;2022-11-25T14:30:34;15.10;;;4.93;;
7199;SDS011;3641;49.082;8.200;2022-11-25T14:33:08;15.85;;;5.05;;
7199;SDS011;3641;49.082;8.200;2022-11-25T14:35:39;14.63;;;5.32;;
7199;SDS011;3641;49.082;8.200;2022-11-25T14:38:10;13.65;;;5.50;;
7199;SDS011;3641;49.082;8.200;2022-11-25T14:40:42;21.27;;;5.35;;
7199;SDS011;3641;49.082;8.200;2022-11-25T14:43:13;11.38;;;5.15;;
7199;SDS011;3641;49.082;8.200;2022-11-25T14:45:43;22.95;;;6.85;;
7199;SDS011;3641;49.082;8.200;2022-11-25T14:48:13;19.25;;;6.13;;
7199;SDS011;3641;49.082;8.200;2022-11-25T14:50:51;15.52;;;5.82;;
7199;SDS011;3641;49.082;8.200;2022-11-25T14:53:19;13.75;;;6.13;;
7199;SDS011;3641;49.082;8.200;2022-11-25T14:55:46;20.67;;;6.32;;
7199;SDS011;3641;49.082;8.200;2022-11-25T14:58:14;17.02;;;6.50;;
7199;SDS011;3641;49.082;8.200;2022-11-25T15:00:50;14.50;;;6.05;;
7199;SDS011;3641;49.082;8.200;2022-11-25T15:03:18;13.88;;;5.78;;
7199;SDS011;3641;49.082;8.200;2022-11-25T15:05:48;12.73;;;5.07;;
7199;SDS011;3641;49.082;8.200;2022-11-25T15:08:19;16.50;;;5.88;;
7199;SDS011;3641;49.082;8.200;2022-11-25T15:10:48;14.25;;;6.43;;
7199;SDS011;3641;49.082;8.200;2022-11-25T15:13:22;17.50;;;5.97;;
7199;SDS011;3641;49.082;8.200;2022-11-25T15:15:56;14.57;;;5.90;;
7199;SDS011;3641;49.082;8.200;2022-11-25T15:18:29;11.90;;;5.25;;
7199;SDS011;3641;49.082;8.200;2022-11-25T15:20:59;13.18;;;5.13;;
7199;SDS011;3641;49.082;8.200;2022-11-25T15:23:27;10.48;;;5.35;;
7199;SDS011;3641;49.082;8.200;2022-11-25T15:25:58;12.88;;;4.85;;
7199;SDS011;3641;49.082;8.200;2022-11-25T15:28:26;11.50;;;4.95;;
7199;SDS011;3641;49.082;8.200;2022-11-25T15:31:00;12.60;;;4.85;;
7199;SDS011;3641;49.082;8.200;2022-11-25T15:33:32;13.70;;;5.45;;